»·PEaware :: SWA1198 KSAN-KLAS

SWA1198 :: KSAN-KLAS

FLIGHT INFORMATION

Flight Status: Arrived
Operator:
Southwest Airlines
More flights by this operator :: More flights under this callsign
Pilot: Alfredo R. (12181)
Aircraft: BOEING 737-800
(B738)
More flights by this aircraft type
Origin: KSAN San Diego Intl-Lindbergh
United States
Destination: KLAS McCarran Intl
United States
More flights between these airports :: More routes between these airports
Route: +PADRZ1 CHKNN SEBBY YELAH MISEN KEPEC6
File this flight plan on PilotEdge
Remarks:
Altitude:
(Current/Filed)
29,000ft
Speed:
(Current/Filed)
460kts
Departed: 30-Nov-17 07:51 PM
Arrived: 30-Nov-17 08:49 PM
Distance/Time
Traveled:
225nm/0:58
Distance/Time
To Go:
Arrived

Flight Plot

Page will automatically refresh every two minutes.

Flight plan parsing failed; only flown route is shown


Map Options




Map Legend


Flown Route
Filed Route
Departure Airport
Arrival Airport
Navaid (VOR, NDB)
Fix

Horizontal Profiles

Position Reports

Time Latitude Longitude Heading Altitude Ground
Speed
30-Nov-17 19:26 32.733187 -117.196832 141 24ft 0kts
30-Nov-17 19:27 32.733187 -117.196832 141 24ft 0kts
30-Nov-17 19:28 32.733187 -117.196832 141 24ft 0kts
30-Nov-17 19:29 32.733187 -117.196832 141 24ft 0kts
30-Nov-17 19:30 32.733187 -117.196832 141 24ft 0kts
30-Nov-17 19:31 32.733187 -117.196832 141 24ft 0kts
30-Nov-17 19:32 32.733187 -117.196832 141 24ft 0kts
30-Nov-17 19:33 32.733187 -117.196832 141 24ft 0kts
30-Nov-17 19:34 32.733187 -117.196832 141 24ft 0kts
30-Nov-17 19:35 32.733187 -117.196832 141 24ft 0kts
30-Nov-17 19:36 32.733187 -117.196832 141 24ft 0kts
30-Nov-17 19:37 32.733187 -117.196832 141 24ft 0kts
30-Nov-17 19:38 32.733276 -117.197228 30 24ft 1kts
30-Nov-17 19:39 32.733222 -117.197250 10 24ft 0kts
30-Nov-17 19:40 32.733222 -117.197250 10 24ft 0kts
30-Nov-17 19:41 32.733222 -117.197250 10 24ft 0kts
30-Nov-17 19:42 32.733286 -117.197232 15 24ft 0kts
30-Nov-17 19:43 32.733586 -117.197082 21 25ft 0kts
30-Nov-17 19:44 32.733588 -117.197081 21 25ft 0kts
30-Nov-17 19:45 32.733588 -117.197081 21 25ft 0kts
30-Nov-17 19:46 32.733588 -117.197081 21 25ft 0kts
30-Nov-17 19:47 32.733719 -117.197026 18 24ft 1kts
30-Nov-17 19:48 32.733988 -117.195674 105 25ft 8kts
30-Nov-17 19:49 32.733235 -117.192581 105 24ft 11kts
30-Nov-17 19:50 32.732289 -117.188689 106 24ft 13kts
30-Nov-17 19:51 32.731219 -117.184267 106 25ft 15kts
30-Nov-17 19:52 32.729993 -117.179181 106 24ft 15kts
30-Nov-17 19:53 32.729533 -117.176726 76 24ft 0kts
30-Nov-17 19:54 32.729951 -117.175854 6 24ft 3kts
30-Nov-17 19:55 32.730695 -117.177882 286 25ft 15kts
30-Nov-17 19:56 32.736345 -117.201064 286 27ft 161kts
30-Nov-17 19:57 32.754909 -117.252167 311 1854ft 183kts
30-Nov-17 19:58 32.789640 -117.302649 307 3272ft 238kts
30-Nov-17 19:59 32.831815 -117.368417 307 5443ft 275kts
30-Nov-17 20:00 32.877403 -117.439197 307 8116ft 287kts
30-Nov-17 20:01 32.914967 -117.497493 306 10158ft 295kts
30-Nov-17 20:02 32.974458 -117.590262 308 12288ft 335kts
30-Nov-17 20:03 33.027653 -117.673346 309 14707ft 341kts
30-Nov-17 20:04 33.085924 -117.752954 322 17061ft 350kts
30-Nov-17 20:05 33.142875 -117.810051 321 19181ft 354kts
30-Nov-17 20:06 33.213129 -117.880873 320 21502ft 361kts
30-Nov-17 20:07 33.287052 -117.953173 319 23283ft 378kts
30-Nov-17 20:08 33.378697 -118.043023 318 25453ft 390kts
30-Nov-17 20:09 33.446380 -118.109328 316 26861ft 399kts
30-Nov-17 20:10 33.529828 -118.191034 316 28735ft 397kts
30-Nov-17 20:11 33.621578 -118.261949 332 29133ft 434kts
30-Nov-17 20:12 33.735741 -118.307735 5 29095ft 473kts
30-Nov-17 20:13 33.825964 -118.215998 58 29099ft 471kts
30-Nov-17 20:14 33.900158 -118.097146 54 29098ft 486kts
30-Nov-17 20:15 33.974558 -117.971198 53 29107ft 485kts
30-Nov-17 20:16 34.049534 -117.844640 54 29101ft 485kts
30-Nov-17 20:17 34.130277 -117.716891 49 29104ft 489kts
30-Nov-17 20:18 34.217150 -117.587729 50 29096ft 501kts
30-Nov-17 20:19 34.302629 -117.460555 49 29094ft 484kts
30-Nov-17 20:20 34.386567 -117.335856 49 29144ft 481kts
30-Nov-17 20:21 34.470183 -117.211869 49 29147ft 485kts
30-Nov-17 20:22 34.555548 -117.085441 50 29154ft 492kts
30-Nov-17 20:23 34.642110 -116.957500 49 29135ft 492kts
30-Nov-17 20:24 34.729110 -116.829055 50 29151ft 493kts
30-Nov-17 20:25 34.814366 -116.703277 48 29136ft 485kts
30-Nov-17 20:26 34.909967 -116.590070 35 29147ft 482kts
30-Nov-17 20:27 35.014297 -116.489287 36 29123ft 469kts
30-Nov-17 20:28 35.107387 -116.398074 40 29133ft 411kts
30-Nov-17 20:29 35.188455 -116.295165 44 28387ft 447kts
30-Nov-17 20:30 35.274032 -116.186741 43 26518ft 435kts
30-Nov-17 20:31 35.354699 -116.084790 44 24402ft 407kts
30-Nov-17 20:32 35.431335 -115.987962 45 21940ft 392kts
30-Nov-17 20:33 35.505132 -115.894721 44 19787ft 375kts
30-Nov-17 20:34 35.575690 -115.805726 44 17741ft 354kts
30-Nov-17 20:35 35.641511 -115.722785 44 15666ft 326kts
30-Nov-17 20:36 35.702681 -115.645302 45 13852ft 315kts
30-Nov-17 20:37 35.767636 -115.578788 13 13030ft 308kts
30-Nov-17 20:38 35.853277 -115.570249 1 13019ft 311kts
30-Nov-17 20:39 35.938889 -115.565352 1 12998ft 312kts
30-Nov-17 20:40 35.993041 -115.495632 69 12148ft 291kts
30-Nov-17 20:41 36.021832 -115.404379 69 11234ft 284kts
30-Nov-17 20:42 36.026472 -115.310917 98 10382ft 277kts
30-Nov-17 20:43 36.019676 -115.217924 98 9477ft 267kts
30-Nov-17 20:44 36.013825 -115.132726 98 8490ft 239kts
30-Nov-17 20:45 36.008640 -115.053720 97 7616ft 222kts
30-Nov-17 20:46 36.006788 -114.979973 94 6649ft 214kts
30-Nov-17 20:47 36.005583 -114.909766 94 5623ft 203kts
30-Nov-17 20:48 36.032646 -114.864620 344 4949ft 208kts
30-Nov-17 20:49 36.067701 -114.917006 302 4900ft 201kts
30-Nov-17 20:50 36.073436 -114.981416 270 4178ft 179kts
30-Nov-17 20:51 36.073629 -115.041136 271 3000ft 171kts
30-Nov-17 20:52 36.073485 -115.096156 267 2696ft 149kts
30-Nov-17 20:53 36.073695 -115.143099 270 2149ft 77kts
30-Nov-17 20:54 36.074461 -115.154672 302 2149ft 2kts
30-Nov-17 20:55 36.074608 -115.154963 302 2149ft 5kts
30-Nov-17 20:56 36.076637 -115.157749 314 2149ft 12kts
30-Nov-17 20:57 36.078031 -115.155519 90 2149ft 12kts
30-Nov-17 20:58 36.077988 -115.150300 95 2148ft 15kts
30-Nov-17 20:59 36.079436 -115.147806 22 2149ft 7kts
30-Nov-17 21:00 36.079919 -115.147122 57 2149ft 0kts
30-Nov-17 21:01 36.079919 -115.147122 57 2149ft 0kts
30-Nov-17 21:02 36.079919 -115.147122 57 2149ft 0kts
30-Nov-17 21:03 36.079919 -115.147122 57 2149ft 0kts

Navigation Log

Ident Type
Flight plan parsing failed, navigation log unavailable